sensor_id;sensor_type;location;lat;lon;timestamp;pressure;altitude;pressure_sealevel;temperature;humidity
73063;BME280;61230;46.328;19.972;2023-11-19T00:00:19;101176.81;;;3.38;100.00
73063;BME280;61230;46.328;19.972;2023-11-19T00:02:47;101174.34;;;3.35;100.00
73063;BME280;61230;46.328;19.972;2023-11-19T00:05:15;101141.38;;;3.02;100.00
73063;BME280;61230;46.328;19.972;2023-11-19T00:07:43;101136.28;;;3.00;100.00
73063;BME280;61230;46.328;19.972;2023-11-19T00:10:13;101179.25;;;3.24;100.00
73063;BME280;61230;46.328;19.972;2023-11-19T00:12:42;101173.34;;;3.21;100.00
73063;BME280;61230;46.328;19.972;2023-11-19T00:15:13;101119.06;;;2.80;100.00
73063;BME280;61230;46.328;19.972;2023-11-19T00:17:41;101173.88;;;3.10;100.00
73063;BME280;61230;46.328;19.972;2023-11-19T00:20:19;101178.22;;;3.10;100.00
73063;BME280;61230;46.328;19.972;2023-11-19T00:22:49;101178.63;;;3.02;100.00
73063;BME280;61230;46.328;19.972;2023-11-19T00:25:21;101176.78;;;3.04;100.00
73063;BME280;61230;46.328;19.972;2023-11-19T00:27:50;101176.09;;;3.01;100.00
73063;BME280;61230;46.328;19.972;2023-11-19T00:30:19;101173.50;;;3.01;100.00
73063;BME280;61230;46.328;19.972;2023-11-19T00:32:47;101157.34;;;2.94;100.00
73063;BME280;61230;46.328;19.972;2023-11-19T00:35:14;101151.50;;;2.72;100.00
73063;BME280;61230;46.328;19.972;2023-11-19T00:37:42;101164.31;;;2.58;100.00
73063;BME280;61230;46.328;19.972;2023-11-19T00:40:11;101165.59;;;2.49;100.00
73063;BME280;61230;46.328;19.972;2023-11-19T00:42:39;101171.06;;;2.43;100.00
73063;BME280;61230;46.328;19.972;2023-11-19T00:45:06;101130.84;;;2.33;100.00
73063;BME280;61230;46.328;19.972;2023-11-19T00:47:38;101175.84;;;2.52;100.00
73063;BME280;61230;46.328;19.972;2023-11-19T00:50:07;101168.84;;;2.53;100.00
73063;BME280;61230;46.328;19.972;2023-11-19T00:52:37;101160.53;;;2.46;100.00
73063;BME280;61230;46.328;19.972;2023-11-19T00:55:06;101163.75;;;2.51;100.00
73063;BME280;61230;46.328;19.972;2023-11-19T00:57:34;101168.94;;;2.51;100.00
73063;BME280;61230;46.328;19.972;2023-11-19T01:00:05;101173.84;;;2.57;100.00
73063;BME280;61230;46.328;19.972;2023-11-19T01:03:02;101167.09;;;2.53;100.00
73063;BME280;61230;46.328;19.972;2023-11-19T01:05:30;101154.63;;;2.43;100.00
73063;BME280;61230;46.328;19.972;2023-11-19T01:07:58;101154.66;;;2.24;100.00
73063;BME280;61230;46.328;19.972;2023-11-19T01:10:26;101163.69;;;2.15;100.00
73063;BME280;61230;46.328;19.972;2023-11-19T01:12:53;101158.81;;;2.08;100.00
73063;BME280;61230;46.328;19.972;2023-11-19T01:15:21;101108.44;;;1.93;100.00
73063;BME280;61230;46.328;19.972;2023-11-19T01:17:50;101163.59;;;2.17;100.00
73063;BME280;61230;46.328;19.972;2023-11-19T01:20:20;101156.19;;;2.09;100.00
73063;BME280;61230;46.328;19.972;2023-11-19T01:22:49;101150.00;;;2.12;100.00
73063;BME280;61230;46.328;19.972;2023-11-19T01:25:17;101147.41;;;2.12;100.00
73063;BME280;61230;46.328;19.972;2023-11-19T01:27:45;101150.50;;;2.01;100.00
73063;BME280;61230;46.328;19.972;2023-11-19T01:30:13;101146.91;;;2.04;100.00
73063;BME280;61230;46.328;19.972;2023-11-19T01:32:41;101103.00;;;1.81;100.00
73063;BME280;61230;46.328;19.972;2023-11-19T01:35:09;101145.00;;;2.07;100.00
73063;BME280;61230;46.328;19.972;2023-11-19T01:37:36;101140.66;;;2.08;100.00
73063;BME280;61230;46.328;19.972;2023-11-19T01:40:04;101142.41;;;2.07;100.00
73063;BME280;61230;46.328;19.972;2023-11-19T01:42:38;101133.72;;;2.08;100.00
73063;BME280;61230;46.328;19.972;2023-11-19T01:45:07;101140.09;;;2.20;100.00
73063;BME280;61230;46.328;19.972;2023-11-19T01:47:37;101134.22;;;2.16;100.00
73063;BME280;61230;46.328;19.972;2023-11-19T01:50:07;101150.72;;;2.15;100.00
73063;BME280;61230;46.328;19.972;2023-11-19T01:52:37;101151.63;;;2.14;100.00
73063;BME280;61230;46.328;19.972;2023-11-19T01:55:07;101156.03;;;2.12;100.00
73063;BME280;61230;46.328;19.972;2023-11-19T01:57:37;101159.69;;;2.08;100.00
73063;BME280;61230;46.328;19.972;2023-11-19T02:00:07;101160.22;;;1.96;100.00
73063;BME280;61230;46.328;19.972;2023-11-19T02:02:40;101155.25;;;1.92;100.00
73063;BME280;61230;46.328;19.972;2023-11-19T02:05:11;101162.00;;;1.96;100.00
73063;BME280;61230;46.328;19.972;2023-11-19T02:07:39;101163.59;;;1.98;100.00
73063;BME280;61230;46.328;19.972;2023-11-19T02:10:07;101140.44;;;1.94;100.00
73063;BME280;61230;46.328;19.972;2023-11-19T02:12:41;101098.69;;;1.61;100.00
73063;BME280;61230;46.328;19.972;2023-11-19T02:15:12;101098.75;;;1.59;100.00
73063;BME280;61230;46.328;19.972;2023-11-19T02:17:40;101135.50;;;1.88;100.00
73063;BME280;61230;46.328;19.972;2023-11-19T02:20:08;101127.06;;;1.84;100.00
73063;BME280;61230;46.328;19.972;2023-11-19T02:22:39;101117.84;;;1.77;100.00
73063;BME280;61230;46.328;19.972;2023-11-19T02:25:31;101121.41;;;1.74;100.00
73063;BME280;61230;46.328;19.972;2023-11-19T02:28:01;101126.91;;;1.87;100.00
73063;BME280;61230;46.328;19.972;2023-11-19T02:30:29;101120.78;;;1.88;100.00
73063;BME280;61230;46.328;19.972;2023-11-19T02:32:59;101124.31;;;1.87;100.00
73063;BME280;61230;46.328;19.972;2023-11-19T02:35:32;101126.84;;;1.89;100.00
73063;BME280;61230;46.328;19.972;2023-11-19T02:38:01;101131.13;;;1.90;100.00
73063;BME280;61230;46.328;19.972;2023-11-19T02:40:31;101120.78;;;1.88;100.00
73063;BME280;61230;46.328;19.972;2023-11-19T02:42:59;101120.78;;;1.88;100.00
73063;BME280;61230;46.328;19.972;2023-11-19T02:45:27;101122.63;;;1.86;100.00
73063;BME280;61230;46.328;19.972;2023-11-19T02:47:58;101114.25;;;1.80;100.00
73063;BME280;61230;46.328;19.972;2023-11-19T02:50:29;101065.38;;;1.52;100.00
73063;BME280;61230;46.328;19.972;2023-11-19T02:52:56;101112.66;;;1.77;100.00
73063;BME280;61230;46.328;19.972;2023-11-19T02:55:24;101105.09;;;1.72;100.00
73063;BME280;61230;46.328;19.972;2023-11-19T02:57:53;101114.13;;;1.64;100.00
73063;BME280;61230;46.328;19.972;2023-11-19T03:00:22;101126.75;;;1.71;100.00
73063;BME280;61230;46.328;19.972;2023-11-19T03:02:51;101125.37;;;1.63;100.00
73063;BME280;61230;46.328;19.972;2023-11-19T03:05:48;101077.34;;;1.36;100.00
73063;BME280;61230;46.328;19.972;2023-11-19T03:08:16;101123.78;;;1.60;100.00
73063;BME280;61230;46.328;19.972;2023-11-19T03:10:47;101110.94;;;1.57;100.00
73063;BME280;61230;46.328;19.972;2023-11-19T03:13:15;101104.19;;;1.53;100.00
73063;BME280;61230;46.328;19.972;2023-11-19T03:15:44;101108.69;;;1.50;100.00
73063;BME280;61230;46.328;19.972;2023-11-19T03:18:12;101115.66;;;1.48;100.00
73063;BME280;61230;46.328;19.972;2023-11-19T03:20:40;101076.28;;;1.20;100.00
73063;BME280;61230;46.328;19.972;2023-11-19T03:23:08;101123.66;;;1.43;100.00
73063;BME280;61230;46.328;19.972;2023-11-19T03:25:36;101121.53;;;1.33;100.00
73063;BME280;61230;46.328;19.972;2023-11-19T03:28:04;101108.34;;;1.37;100.00
73063;BME280;61230;46.328;19.972;2023-11-19T03:30:32;101104.78;;;1.40;100.00
73063;BME280;61230;46.328;19.972;2023-11-19T03:33:01;101092.16;;;1.32;100.00
73063;BME280;61230;46.328;19.972;2023-11-19T03:35:30;101097.34;;;1.32;100.00
73063;BME280;61230;46.328;19.972;2023-11-19T03:37:58;101096.47;;;1.33;100.00
73063;BME280;61230;46.328;19.972;2023-11-19T03:40:25;101093.16;;;1.30;100.00
73063;BME280;61230;46.328;19.972;2023-11-19T03:42:53;101102.53;;;1.32;100.00
73063;BME280;61230;46.328;19.972;2023-11-19T03:45:21;101101.69;;;1.32;100.00
73063;BME280;61230;46.328;19.972;2023-11-19T03:47:49;101049.56;;;0.99;100.00
73063;BME280;61230;46.328;19.972;2023-11-19T03:50:17;101090.56;;;1.30;100.00
73063;BME280;61230;46.328;19.972;2023-11-19T03:52:47;101082.81;;;1.28;100.00
73063;BME280;61230;46.328;19.972;2023-11-19T03:55:16;101084.53;;;1.29;100.00
73063;BME280;61230;46.328;19.972;2023-11-19T03:57:43;101037.16;;;1.05;100.00
73063;BME280;61230;46.328;19.972;2023-11-19T04:00:11;101073.38;;;1.27;100.00
73063;BME280;61230;46.328;19.972;2023-11-19T04:02:41;101067.00;;;1.34;100.00
73063;BME280;61230;46.328;19.972;2023-11-19T04:05:09;101074.03;;;1.32;100.00
73063;BME280;61230;46.328;19.972;2023-11-19T04:07:39;101073.00;;;1.16;100.00
73063;BME280;61230;46.328;19.972;2023-11-19T04:10:08;101067.16;;;1.11;100.00
73063;BME280;61230;46.328;19.972;2023-11-19T04:12:35;101020.69;;;0.88;100.00
73063;BME280;61230;46.328;19.972;2023-11-19T04:15:03;101072.03;;;1.19;100.00
73063;BME280;61230;46.328;19.972;2023-11-19T04:17:32;101090.69;;;1.27;100.00
73063;BME280;61230;46.328;19.972;2023-11-19T04:19:59;101091.06;;;1.17;100.00
73063;BME280;61230;46.328;19.972;2023-11-19T04:22:27;101073.97;;;0.93;100.00
73063;BME280;61230;46.328;19.972;2023-11-19T04:24:55;101068.72;;;0.95;100.00
73063;BME280;61230;46.328;19.972;2023-11-19T04:27:23;101078.50;;;1.08;100.00
73063;BME280;61230;46.328;19.972;2023-11-19T04:29:51;101060.56;;;1.04;100.00
73063;BME280;61230;46.328;19.972;2023-11-19T04:32:19;101058.22;;;0.98;100.00
73063;BME280;61230;46.328;19.972;2023-11-19T04:34:48;101068.25;;;0.85;100.00
73063;BME280;61230;46.328;19.972;2023-11-19T04:37:16;101012.91;;;0.68;100.00
73063;BME280;61230;46.328;19.972;2023-11-19T04:39:44;101056.00;;;0.89;100.00
73063;BME280;61230;46.328;19.972;2023-11-19T04:42:13;101054.78;;;0.77;100.00
73063;BME280;61230;46.328;19.972;2023-11-19T04:44:44;101058.28;;;0.76;100.00
73063;BME280;61230;46.328;19.972;2023-11-19T04:47:12;101046.84;;;0.82;100.00
73063;BME280;61230;46.328;19.972;2023-11-19T04:49:41;101057.56;;;0.73;100.00
73063;BME280;61230;46.328;19.972;2023-11-19T04:52:12;101049.16;;;0.68;100.00
73063;BME280;61230;46.328;19.972;2023-11-19T04:54:43;101056.84;;;0.69;100.00
73063;BME280;61230;46.328;19.972;2023-11-19T04:57:11;101056.06;;;0.67;100.00
73063;BME280;61230;46.328;19.972;2023-11-19T04:59:40;101033.13;;;0.58;100.00
73063;BME280;61230;46.328;19.972;2023-11-19T05:02:09;101052.50;;;0.70;100.00
73063;BME280;61230;46.328;19.972;2023-11-19T05:04:37;101040.44;;;0.69;100.00
73063;BME280;61230;46.328;19.972;2023-11-19T05:07:08;101031.06;;;0.66;100.00
73063;BME280;61230;46.328;19.972;2023-11-19T05:09:35;101038.13;;;0.63;100.00
73063;BME280;61230;46.328;19.972;2023-11-19T05:12:03;101034.72;;;0.62;100.00
73063;BME280;61230;46.328;19.972;2023-11-19T05:14:31;101023.09;;;0.50;100.00
73063;BME280;61230;46.328;19.972;2023-11-19T05:16:58;101020.50;;;0.50;100.00
73063;BME280;61230;46.328;19.972;2023-11-19T05:19:26;101023.03;;;0.52;100.00
73063;BME280;61230;46.328;19.972;2023-11-19T05:21:54;101029.78;;;0.56;100.00
73063;BME280;61230;46.328;19.972;2023-11-19T05:24:22;101035.94;;;0.53;100.00
73063;BME280;61230;46.328;19.972;2023-11-19T05:26:51;101018.62;;;0.34;100.00
73063;BME280;61230;46.328;19.972;2023-11-19T05:29:19;101039.66;;;0.25;100.00
73063;BME280;61230;46.328;19.972;2023-11-19T05:31:47;101045.91;;;0.41;100.00
73063;BME280;61230;46.328;19.972;2023-11-19T05:34:15;101045.19;;;0.37;100.00
73063;BME280;61230;46.328;19.972;2023-11-19T05:36:43;101050.06;;;0.23;100.00
73063;BME280;61230;46.328;19.972;2023-11-19T05:39:10;101054.75;;;0.35;100.00
73063;BME280;61230;46.328;19.972;2023-11-19T05:41:38;101048.59;;;0.39;100.00
73063;BME280;61230;46.328;19.972;2023-11-19T05:44:06;100999.72;;;0.10;100.00
73063;BME280;61230;46.328;19.972;2023-11-19T05:46:34;101046.91;;;0.17;100.00
73063;BME280;61230;46.328;19.972;2023-11-19T05:49:11;101027.97;;;0.15;100.00
73063;BME280;61230;46.328;19.972;2023-11-19T05:51:40;101046.53;;;0.47;100.00
73063;BME280;61230;46.328;19.972;2023-11-19T05:54:09;101055.91;;;0.50;100.00
73063;BME280;61230;46.328;19.972;2023-11-19T05:56:38;101052.66;;;0.45;100.00
73063;BME280;61230;46.328;19.972;2023-11-19T05:59:05;101052.72;;;0.43;100.00
73063;BME280;61230;46.328;19.972;2023-11-19T06:01:45;101058.50;;;0.50;100.00
73063;BME280;61230;46.328;19.972;2023-11-19T06:04:14;101053.81;;;0.60;100.00
73063;BME280;61230;46.328;19.972;2023-11-19T06:06:41;101060.34;;;0.68;100.00
73063;BME280;61230;46.328;19.972;2023-11-19T06:09:09;101059.25;;;0.74;100.00
73063;BME280;61230;46.328;19.972;2023-11-19T06:11:41;101007.63;;;0.49;100.00
73063;BME280;61230;46.328;19.972;2023-11-19T06:14:08;101056.09;;;0.87;100.00
73063;BME280;61230;46.328;19.972;2023-11-19T06:16:36;101005.06;;;0.69;100.00
73063;BME280;61230;46.328;19.972;2023-11-19T06:19:04;101057.50;;;0.94;100.00
73063;BME280;61230;46.328;19.972;2023-11-19T06:21:32;101049.59;;;0.97;100.00
73063;BME280;61230;46.328;19.972;2023-11-19T06:24:00;101050.31;;;1.01;100.00
73063;BME280;61230;46.328;19.972;2023-11-19T06:26:28;101039.06;;;1.02;100.00
73063;BME280;61230;46.328;19.972;2023-11-19T06:28:55;101044.75;;;1.10;100.00
73063;BME280;61230;46.328;19.972;2023-11-19T06:31:23;101038.47;;;1.15;100.00
73063;BME280;61230;46.328;19.972;2023-11-19T06:33:51;101030.63;;;1.17;100.00
73063;BME280;61230;46.328;19.972;2023-11-19T06:36:19;100989.31;;;0.94;100.00
73063;BME280;61230;46.328;19.972;2023-11-19T06:38:46;101037.03;;;1.29;100.00
73063;BME280;61230;46.328;19.972;2023-11-19T06:41:14;101034.38;;;1.30;100.00
73063;BME280;61230;46.328;19.972;2023-11-19T06:43:42;101034.25;;;1.33;100.00
73063;BME280;61230;46.328;19.972;2023-11-19T06:46:17;101036.22;;;1.47;100.00
73063;BME280;61230;46.328;19.972;2023-11-19T06:48:45;101037.22;;;1.63;100.00
73063;BME280;61230;46.328;19.972;2023-11-19T06:51:13;101042.41;;;1.63;100.00
73063;BME280;61230;46.328;19.972;2023-11-19T06:53:42;101035.25;;;1.68;100.00
73063;BME280;61230;46.328;19.972;2023-11-19T06:56:20;101039.44;;;1.70;100.00
73063;BME280;61230;46.328;19.972;2023-11-19T06:58:49;101044.66;;;1.89;100.00
73063;BME280;61230;46.328;19.972;2023-11-19T07:01:17;101022.34;;;2.04;100.00
73063;BME280;61230;46.328;19.972;2023-11-19T07:03:46;100972.22;;;1.85;100.00
73063;BME280;61230;46.328;19.972;2023-11-19T07:06:14;101024.47;;;2.13;100.00
73063;BME280;61230;46.328;19.972;2023-11-19T07:08:42;101021.16;;;2.28;100.00
73063;BME280;61230;46.328;19.972;2023-11-19T07:11:13;101024.09;;;2.39;100.00
73063;BME280;61230;46.328;19.972;2023-11-19T07:13:45;101029.38;;;2.38;100.00
73063;BME280;61230;46.328;19.972;2023-11-19T07:16:14;101015.84;;;2.48;100.00
73063;BME280;61230;46.328;19.972;2023-11-19T07:18:42;101016.56;;;2.52;100.00
73063;BME280;61230;46.328;19.972;2023-11-19T07:21:11;100974.06;;;2.36;100.00
73063;BME280;61230;46.328;19.972;2023-11-19T07:23:39;101017.25;;;2.72;100.00
73063;BME280;61230;46.328;19.972;2023-11-19T07:26:07;101011.81;;;2.77;100.00
73063;BME280;61230;46.328;19.972;2023-11-19T07:28:38;101007.94;;;2.85;100.00
73063;BME280;61230;46.328;19.972;2023-11-19T07:31:07;101009.38;;;2.91;100.00
73063;BME280;61230;46.328;19.972;2023-11-19T07:33:39;101006.69;;;2.92;100.00
73063;BME280;61230;46.328;19.972;2023-11-19T07:36:07;100998.22;;;2.89;100.00
73063;BME280;61230;46.328;19.972;2023-11-19T07:38:35;101001.97;;;3.01;100.00
73063;BME280;61230;46.328;19.972;2023-11-19T07:41:03;101000.72;;;3.08;100.00
73063;BME280;61230;46.328;19.972;2023-11-19T07:43:31;100999.81;;;3.09;100.00
73063;BME280;61230;46.328;19.972;2023-11-19T07:45:59;100993.13;;;3.20;100.00
73063;BME280;61230;46.328;19.972;2023-11-19T07:48:26;100997.50;;;3.35;100.00
73063;BME280;61230;46.328;19.972;2023-11-19T07:50:54;100997.72;;;3.48;100.00
73063;BME280;61230;46.328;19.972;2023-11-19T07:53:22;100993.28;;;3.66;100.00
73063;BME280;61230;46.328;19.972;2023-11-19T07:55:49;100998.91;;;3.74;100.00
73063;BME280;61230;46.328;19.972;2023-11-19T07:58:17;101000.75;;;3.87;100.00
73063;BME280;61230;46.328;19.972;2023-11-19T08:00:45;101003.53;;;4.00;100.00
73063;BME280;61230;46.328;19.972;2023-11-19T08:03:13;100998.66;;;4.10;100.00
73063;BME280;61230;46.328;19.972;2023-11-19T08:05:41;100985.13;;;4.19;100.00
73063;BME280;61230;46.328;19.972;2023-11-19T08:08:08;100987.94;;;4.30;100.00
73063;BME280;61230;46.328;19.972;2023-11-19T08:10:36;100983.13;;;4.38;100.00
73063;BME280;61230;46.328;19.972;2023-11-19T08:13:04;100997.81;;;4.54;100.00
73063;BME280;61230;46.328;19.972;2023-11-19T08:15:32;100959.69;;;4.38;100.00
73063;BME280;61230;46.328;19.972;2023-11-19T08:17:59;100987.69;;;4.64;100.00
73063;BME280;61230;46.328;19.972;2023-11-19T08:20:27;100985.13;;;4.78;100.00
73063;BME280;61230;46.328;19.972;2023-11-19T08:22:55;100944.25;;;4.64;100.00
73063;BME280;61230;46.328;19.972;2023-11-19T08:25:23;100991.12;;;5.08;100.00
73063;BME280;61230;46.328;19.972;2023-11-19T08:27:50;100988.63;;;5.21;100.00
73063;BME280;61230;46.328;19.972;2023-11-19T08:30:18;100972.41;;;5.30;100.00
73063;BME280;61230;46.328;19.972;2023-11-19T08:32:46;100966.63;;;5.53;100.00
73063;BME280;61230;46.328;19.972;2023-11-19T08:35:14;100958.31;;;5.61;100.00
73063;BME280;61230;46.328;19.972;2023-11-19T08:37:43;100964.91;;;5.66;100.00
73063;BME280;61230;46.328;19.972;2023-11-19T08:40:13;100962.47;;;5.77;100.00
73063;BME280;61230;46.328;19.972;2023-11-19T08:42:44;100976.75;;;5.86;100.00
73063;BME280;61230;46.328;19.972;2023-11-19T08:45:12;100976.37;;;5.92;100.00
73063;BME280;61230;46.328;19.972;2023-11-19T08:47:40;100968.69;;;6.03;100.00
73063;BME280;61230;46.328;19.972;2023-11-19T08:50:08;100968.22;;;5.97;100.00
73063;BME280;61230;46.328;19.972;2023-11-19T08:52:36;100967.44;;;6.09;100.00
73063;BME280;61230;46.328;19.972;2023-11-19T08:55:05;100957.44;;;6.15;100.00
73063;BME280;61230;46.328;19.972;2023-11-19T08:57:33;100918.37;;;5.87;100.00
73063;BME280;61230;46.328;19.972;2023-11-19T09:00:00;100953.62;;;6.33;100.00
73063;BME280;61230;46.328;19.972;2023-11-19T09:02:28;100937.41;;;6.28;100.00
73063;BME280;61230;46.328;19.972;2023-11-19T09:04:56;100912.47;;;6.10;100.00
73063;BME280;61230;46.328;19.972;2023-11-19T09:07:23;100950.72;;;6.38;100.00
73063;BME280;61230;46.328;19.972;2023-11-19T09:09:51;100946.47;;;6.50;100.00
73063;BME280;61230;46.328;19.972;2023-11-19T09:12:19;100898.75;;;6.33;100.00
73063;BME280;61230;46.328;19.972;2023-11-19T09:14:46;100942.31;;;6.72;100.00
73063;BME280;61230;46.328;19.972;2023-11-19T09:17:14;100942.59;;;6.68;98.83
73063;BME280;61230;46.328;19.972;2023-11-19T09:19:42;100921.69;;;6.68;100.00
73063;BME280;61230;46.328;19.972;2023-11-19T09:22:10;100930.16;;;6.71;96.16
73063;BME280;61230;46.328;19.972;2023-11-19T09:24:38;100884.94;;;6.31;96.81
73063;BME280;61230;46.328;19.972;2023-11-19T09:27:06;100913.66;;;6.58;97.51
73063;BME280;61230;46.328;19.972;2023-11-19T09:29:34;100904.19;;;6.56;98.23
73063;BME280;61230;46.328;19.972;2023-11-19T09:32:01;100901.19;;;6.49;98.41
73063;BME280;61230;46.328;19.972;2023-11-19T09:34:32;100891.78;;;6.59;99.79
73063;BME280;61230;46.328;19.972;2023-11-19T09:37:00;100843.34;;;6.28;99.27
73063;BME280;61230;46.328;19.972;2023-11-19T09:39:27;100884.78;;;6.60;100.00
73063;BME280;61230;46.328;19.972;2023-11-19T09:41:55;100888.00;;;6.51;100.00
73063;BME280;61230;46.328;19.972;2023-11-19T09:44:23;100892.19;;;6.53;99.70
73063;BME280;61230;46.328;19.972;2023-11-19T09:46:55;100893.53;;;6.46;100.00
73063;BME280;61230;46.328;19.972;2023-11-19T09:49:26;100894.37;;;6.59;100.00
73063;BME280;61230;46.328;19.972;2023-11-19T09:51:57;100901.63;;;6.68;100.00
73063;BME280;61230;46.328;19.972;2023-11-19T09:54:25;100906.75;;;6.82;99.62
73063;BME280;61230;46.328;19.972;2023-11-19T09:56:55;100863.53;;;6.77;97.84
73063;BME280;61230;46.328;19.972;2023-11-19T09:59:29;100852.56;;;6.59;97.13
73063;BME280;61230;46.328;19.972;2023-11-19T10:01:57;100891.97;;;6.94;95.24
73063;BME280;61230;46.328;19.972;2023-11-19T10:04:29;100846.94;;;6.53;95.46
73063;BME280;61230;46.328;19.972;2023-11-19T10:06:57;100885.91;;;6.93;95.13
73063;BME280;61230;46.328;19.972;2023-11-19T10:09:25;100838.22;;;6.65;95.67
73063;BME280;61230;46.328;19.972;2023-11-19T10:11:53;100893.03;;;6.91;94.94
73063;BME280;61230;46.328;19.972;2023-11-19T10:14:23;100887.78;;;7.04;97.02
73063;BME280;61230;46.328;19.972;2023-11-19T10:16:51;100872.06;;;7.04;94.79
73063;BME280;61230;46.328;19.972;2023-11-19T10:19:19;100873.88;;;6.91;96.48
73063;BME280;61230;46.328;19.972;2023-11-19T10:21:50;100884.47;;;6.89;96.94
73063;BME280;61230;46.328;19.972;2023-11-19T10:24:31;100880.16;;;6.88;96.98
73063;BME280;61230;46.328;19.972;2023-11-19T10:27:00;100887.38;;;6.85;96.42
73063;BME280;61230;46.328;19.972;2023-11-19T10:29:30;100885.28;;;6.90;95.81
73063;BME280;61230;46.328;19.972;2023-11-19T10:31:58;100857.47;;;6.89;95.18
73063;BME280;61230;46.328;19.972;2023-11-19T10:34:46;100854.72;;;6.90;96.90
73063;BME280;61230;46.328;19.972;2023-11-19T10:37:29;100877.63;;;6.87;96.30
73063;BME280;61230;46.328;19.972;2023-11-19T10:39:59;100888.94;;;6.87;96.15
73063;BME280;61230;46.328;19.972;2023-11-19T10:42:27;100880.72;;;6.81;94.11
73063;BME280;61230;46.328;19.972;2023-11-19T10:44:55;100831.56;;;6.61;91.65
73063;BME280;61230;46.328;19.972;2023-11-19T10:47:23;100852.41;;;6.99;91.11
73063;BME280;61230;46.328;19.972;2023-11-19T10:49:53;100849.72;;;7.00;91.36
73063;BME280;61230;46.328;19.972;2023-11-19T10:52:21;100849.78;;;7.11;89.15
73063;BME280;61230;46.328;19.972;2023-11-19T10:54:50;100842.22;;;7.19;90.65
73063;BME280;61230;46.328;19.972;2023-11-19T10:57:21;100838.13;;;7.15;89.87
73063;BME280;61230;46.328;19.972;2023-11-19T10:59:52;100796.94;;;7.06;89.42
73063;BME280;61230;46.328;19.972;2023-11-19T11:02:24;100842.56;;;7.38;88.78
73063;BME280;61230;46.328;19.972;2023-11-19T11:04:54;100851.41;;;7.37;85.71
73063;BME280;61230;46.328;19.972;2023-11-19T11:07:22;100798.44;;;7.21;85.39
73063;BME280;61230;46.328;19.972;2023-11-19T11:10:07;100825.28;;;7.48;86.16
73063;BME280;61230;46.328;19.972;2023-11-19T11:12:37;100780.13;;;7.21;84.08
73063;BME280;61230;46.328;19.972;2023-11-19T11:15:11;100822.00;;;7.58;85.52
73063;BME280;61230;46.328;19.972;2023-11-19T11:17:43;100818.62;;;7.56;83.87
73063;BME280;61230;46.328;19.972;2023-11-19T11:20:13;100820.09;;;7.60;85.62
73063;BME280;61230;46.328;19.972;2023-11-19T11:22:53;100767.00;;;7.34;85.07
73063;BME280;61230;46.328;19.972;2023-11-19T11:34:13;100796.63;;;7.58;84.49
73063;BME280;61230;46.328;19.972;2023-11-19T11:39:22;100826.53;;;7.67;84.21
73063;BME280;61230;46.328;19.972;2023-11-19T11:50:24;100812.50;;;7.68;87.50
73063;BME280;61230;46.328;19.972;2023-11-19T11:57:55;100811.56;;;7.69;83.83
73063;BME280;61230;46.328;19.972;2023-11-19T12:02:59;100799.16;;;7.60;83.70
73063;BME280;61230;46.328;19.972;2023-11-19T12:05:27;100791.28;;;7.60;83.33
73063;BME280;61230;46.328;19.972;2023-11-19T12:08:04;100783.44;;;7.60;84.04
73063;BME280;61230;46.328;19.972;2023-11-19T12:10:55;100776.06;;;7.65;85.35
73063;BME280;61230;46.328;19.972;2023-11-19T12:13:47;100764.44;;;7.69;86.99
73063;BME280;61230;46.328;19.972;2023-11-19T12:16:15;100718.37;;;7.42;84.22
73063;BME280;61230;46.328;19.972;2023-11-19T12:18:44;100751.56;;;7.66;83.57
73063;BME280;61230;46.328;19.972;2023-11-19T12:21:27;100753.06;;;7.57;85.32
73063;BME280;61230;46.328;19.972;2023-11-19T12:23:58;100751.84;;;7.50;84.75
73063;BME280;61230;46.328;19.972;2023-11-19T12:26:35;100738.03;;;7.48;83.63
73063;BME280;61230;46.328;19.972;2023-11-19T12:29:03;100724.38;;;7.56;85.69
73063;BME280;61230;46.328;19.972;2023-11-19T12:31:36;100724.84;;;7.61;85.87
73063;BME280;61230;46.328;19.972;2023-11-19T12:34:05;100711.78;;;7.61;84.91
73063;BME280;61230;46.328;19.972;2023-11-19T12:36:34;100716.56;;;7.67;85.78
73063;BME280;61230;46.328;19.972;2023-11-19T12:39:02;100708.06;;;7.52;83.80
73063;BME280;61230;46.328;19.972;2023-11-19T12:41:31;100709.66;;;7.66;85.28
73063;BME280;61230;46.328;19.972;2023-11-19T12:44:11;100667.22;;;7.49;85.00
73063;BME280;61230;46.328;19.972;2023-11-19T12:46:40;100708.50;;;7.81;85.42
73063;BME280;61230;46.328;19.972;2023-11-19T12:49:11;100706.16;;;7.89;85.32
73063;BME280;61230;46.328;19.972;2023-11-19T12:51:38;100699.09;;;7.89;86.20
73063;BME280;61230;46.328;19.972;2023-11-19T12:54:06;100696.84;;;7.96;84.39
73063;BME280;61230;46.328;19.972;2023-11-19T12:56:34;100700.16;;;7.87;84.05
73063;BME280;61230;46.328;19.972;2023-11-19T12:59:12;100709.97;;;8.07;86.54
73063;BME280;61230;46.328;19.972;2023-11-19T13:01:40;100712.34;;;8.10;83.72
73063;BME280;61230;46.328;19.972;2023-11-19T13:04:19;100707.94;;;8.10;85.81
73063;BME280;61230;46.328;19.972;2023-11-19T13:06:47;100704.50;;;8.10;85.93
73063;BME280;61230;46.328;19.972;2023-11-19T13:09:35;100704.72;;;8.07;86.45
73063;BME280;61230;46.328;19.972;2023-11-19T13:12:13;100701.72;;;8.00;86.00
73063;BME280;61230;46.328;19.972;2023-11-19T13:14:41;100702.94;;;7.96;86.39
73063;BME280;61230;46.328;19.972;2023-11-19T13:17:13;100689.22;;;7.93;85.95
73063;BME280;61230;46.328;19.972;2023-11-19T13:19:41;100688.50;;;7.80;85.44
73063;BME280;61230;46.328;19.972;2023-11-19T13:22:09;100682.03;;;7.73;86.32